Pagrindinis puslapis
METAR-TAF:

METAR-TAF

Oro uostai :

Terezina, Piauí, Brazilija

platuma: 05-03S, ilguma: 042-49W, Aukštis: 69 m

Dabartinis oras

Ataskaita buvo paskelbta 51 minutes, ne 13:00 UTC
Vėjas 8 kt iš Pietryčių
Temperatūra 28°C
Drėgmė 66%
Slėgis 1014 hPa
Matomumas 10 km arba daugiau
nėra debesų žemiau 1500 m ir nėra kamuolinių lietaus debesų

METAR: SBTE 301300Z 14008KT CAVOK 28/21 Q1014

Laikas: 10:51 (13:51 UTC)

Prognozė

Ataskaita buvo paskelbta 4 valandos ir 51 minutes, ne 09:00 UTC
Prognozė galioja nuo 30 metu 12 UTC su 30 metu 24 UTC
Vėjas 6 kt iš Pietų
Matomumas 10 km arba daugiau
Su prošvaistėmis ne aukštis 3000 ft
Tapsmas
nuo 30 metu 17 UTC su 30 metu 19 UTC
Išsisklaidę debesys ne aukštis 3000 ft

TAF: SBTE 300900Z 3012/3024 19006KT 9999 BKN030 TN28/3012Z TX33/3017Z BECMG 3017/3019 SCT030 RMK PEA

Orai ataskaitas ir orų prognozės (METAR, TAF).

turimą stotys yra geltonos ir raudonos taškus žemėlapyje.

Perkelti pele per norėdami pamatyti stoties vardą.

Tada spustelėkite, norėdami matyti oro stebėjimo ir prognozės.

Norėdami pakeisti žemėlapį: spustelėkite ant žalios mygtukų su juodo kryžiaus žemyn,; žalią mygtuką su brūkšneliu, jei norite nutolinti; arba žalių rodyklių gretimoms žemėlapius.


METAR-TAF: